sensor_id;sensor_type;location;lat;lon;timestamp;P1;durP1;ratioP1;P2;durP2;ratioP2
29314;SDS011;16320;53.954;9.506;2023-04-01T00:00:18;68.22;;;28.88;;
29314;SDS011;16320;53.954;9.506;2023-04-01T00:03:24;61.92;;;27.80;;
29314;SDS011;16320;53.954;9.506;2023-04-01T00:06:32;54.13;;;24.95;;
29314;SDS011;16320;53.954;9.506;2023-04-01T00:09:37;59.15;;;26.05;;
29314;SDS011;16320;53.954;9.506;2023-04-01T00:12:42;67.05;;;28.98;;
29314;SDS011;16320;53.954;9.506;2023-04-01T00:15:48;58.22;;;27.95;;
29314;SDS011;16320;53.954;9.506;2023-04-01T00:18:53;57.63;;;27.02;;
29314;SDS011;16320;53.954;9.506;2023-04-01T00:21:57;60.70;;;27.27;;
29314;SDS011;16320;53.954;9.506;2023-04-01T00:25:03;56.45;;;26.58;;
29314;SDS011;16320;53.954;9.506;2023-04-01T00:28:08;54.13;;;26.60;;
29314;SDS011;16320;53.954;9.506;2023-04-01T00:31:13;58.70;;;24.73;;
29314;SDS011;16320;53.954;9.506;2023-04-01T00:34:18;63.33;;;24.67;;
29314;SDS011;16320;53.954;9.506;2023-04-01T00:37:23;61.80;;;28.13;;
29314;SDS011;16320;53.954;9.506;2023-04-01T00:40:35;62.92;;;30.10;;
29314;SDS011;16320;53.954;9.506;2023-04-01T00:46:50;57.45;;;28.20;;
29314;SDS011;16320;53.954;9.506;2023-04-01T00:49:56;65.20;;;28.50;;
29314;SDS011;16320;53.954;9.506;2023-04-01T00:53:01;53.10;;;26.98;;
29314;SDS011;16320;53.954;9.506;2023-04-01T00:56:10;64.60;;;28.95;;
29314;SDS011;16320;53.954;9.506;2023-04-01T00:59:24;56.33;;;28.23;;
29314;SDS011;16320;53.954;9.506;2023-04-01T01:02:33;63.83;;;29.92;;
29314;SDS011;16320;53.954;9.506;2023-04-01T01:05:44;55.65;;;27.63;;
29314;SDS011;16320;53.954;9.506;2023-04-01T01:12:23;51.13;;;25.92;;
29314;SDS011;16320;53.954;9.506;2023-04-01T01:15:56;52.92;;;24.60;;
29314;SDS011;16320;53.954;9.506;2023-04-01T01:33:05;50.50;;;23.38;;
29314;SDS011;16320;53.954;9.506;2023-04-01T01:36:19;49.15;;;22.67;;
29314;SDS011;16320;53.954;9.506;2023-04-01T01:39:29;55.97;;;23.23;;
29314;SDS011;16320;53.954;9.506;2023-04-01T01:42:38;50.25;;;21.77;;
29314;SDS011;16320;53.954;9.506;2023-04-01T01:45:49;55.20;;;22.45;;
29314;SDS011;16320;53.954;9.506;2023-04-01T01:48:59;58.17;;;22.95;;
29314;SDS011;16320;53.954;9.506;2023-04-01T01:52:06;46.85;;;21.38;;
29314;SDS011;16320;53.954;9.506;2023-04-01T01:59:11;44.58;;;20.33;;
29314;SDS011;16320;53.954;9.506;2023-04-01T02:02:12;49.17;;;22.23;;
29314;SDS011;16320;53.954;9.506;2023-04-01T02:05:19;46.83;;;20.65;;
29314;SDS011;16320;53.954;9.506;2023-04-01T02:08:33;47.28;;;21.60;;
29314;SDS011;16320;53.954;9.506;2023-04-01T02:11:51;41.30;;;20.08;;
29314;SDS011;16320;53.954;9.506;2023-04-01T02:15:06;50.88;;;21.35;;
29314;SDS011;16320;53.954;9.506;2023-04-01T02:18:15;49.90;;;21.63;;
29314;SDS011;16320;53.954;9.506;2023-04-01T02:21:22;48.88;;;22.27;;
29314;SDS011;16320;53.954;9.506;2023-04-01T02:24:30;46.65;;;22.05;;
29314;SDS011;16320;53.954;9.506;2023-04-01T02:27:37;49.63;;;22.13;;
29314;SDS011;16320;53.954;9.506;2023-04-01T02:30:44;50.97;;;22.15;;
29314;SDS011;16320;53.954;9.506;2023-04-01T02:33:51;48.97;;;22.70;;
29314;SDS011;16320;53.954;9.506;2023-04-01T02:36:57;45.67;;;21.33;;
29314;SDS011;16320;53.954;9.506;2023-04-01T02:40:03;54.03;;;21.25;;
29314;SDS011;16320;53.954;9.506;2023-04-01T02:43:11;48.95;;;23.70;;
29314;SDS011;16320;53.954;9.506;2023-04-01T02:46:15;52.20;;;22.58;;
29314;SDS011;16320;53.954;9.506;2023-04-01T02:49:20;52.47;;;21.35;;
29314;SDS011;16320;53.954;9.506;2023-04-01T02:52:25;47.03;;;19.70;;
29314;SDS011;16320;53.954;9.506;2023-04-01T02:55:30;30.50;;;13.80;;
29314;SDS011;16320;53.954;9.506;2023-04-01T02:58:35;27.10;;;12.13;;
29314;SDS011;16320;53.954;9.506;2023-04-01T03:04:43;19.95;;;9.55;;
29314;SDS011;16320;53.954;9.506;2023-04-01T03:07:49;20.90;;;9.43;;
29314;SDS011;16320;53.954;9.506;2023-04-01T03:10:53;17.85;;;8.40;;
29314;SDS011;16320;53.954;9.506;2023-04-01T03:13:57;15.55;;;7.75;;
29314;SDS011;16320;53.954;9.506;2023-04-01T03:17:02;12.38;;;7.50;;
29314;SDS011;16320;53.954;9.506;2023-04-01T03:20:06;13.40;;;6.85;;
29314;SDS011;16320;53.954;9.506;2023-04-01T03:23:12;13.10;;;6.55;;
29314;SDS011;16320;53.954;9.506;2023-04-01T03:26:17;11.38;;;6.47;;
29314;SDS011;16320;53.954;9.506;2023-04-01T03:29:22;14.35;;;8.13;;
29314;SDS011;16320;53.954;9.506;2023-04-01T03:32:26;13.82;;;7.90;;
29314;SDS011;16320;53.954;9.506;2023-04-01T03:35:31;14.98;;;8.70;;
29314;SDS011;16320;53.954;9.506;2023-04-01T03:38:37;14.00;;;8.75;;
29314;SDS011;16320;53.954;9.506;2023-04-01T03:41:42;16.58;;;9.40;;
29314;SDS011;16320;53.954;9.506;2023-04-01T03:44:46;19.02;;;9.65;;
29314;SDS011;16320;53.954;9.506;2023-04-01T03:47:50;17.75;;;9.45;;
29314;SDS011;16320;53.954;9.506;2023-04-01T03:50:55;14.80;;;9.15;;
29314;SDS011;16320;53.954;9.506;2023-04-01T03:53:59;19.40;;;9.30;;
29314;SDS011;16320;53.954;9.506;2023-04-01T03:57:04;15.98;;;9.35;;
29314;SDS011;16320;53.954;9.506;2023-04-01T04:00:09;15.63;;;9.30;;
29314;SDS011;16320;53.954;9.506;2023-04-01T04:03:14;14.70;;;8.80;;
29314;SDS011;16320;53.954;9.506;2023-04-01T04:06:19;11.35;;;7.65;;
29314;SDS011;16320;53.954;9.506;2023-04-01T04:09:24;10.75;;;7.78;;
29314;SDS011;16320;53.954;9.506;2023-04-01T04:12:28;10.43;;;6.38;;
29314;SDS011;16320;53.954;9.506;2023-04-01T04:15:32;11.65;;;7.18;;
29314;SDS011;16320;53.954;9.506;2023-04-01T04:18:37;11.40;;;6.55;;
29314;SDS011;16320;53.954;9.506;2023-04-01T04:21:41;10.98;;;7.28;;
29314;SDS011;16320;53.954;9.506;2023-04-01T04:24:46;9.43;;;6.10;;
29314;SDS011;16320;53.954;9.506;2023-04-01T04:27:50;11.07;;;6.25;;
29314;SDS011;16320;53.954;9.506;2023-04-01T04:30:55;10.48;;;5.95;;
29314;SDS011;16320;53.954;9.506;2023-04-01T04:34:00;13.43;;;6.82;;
29314;SDS011;16320;53.954;9.506;2023-04-01T04:37:05;10.70;;;6.47;;
29314;SDS011;16320;53.954;9.506;2023-04-01T04:40:09;9.35;;;6.10;;
29314;SDS011;16320;53.954;9.506;2023-04-01T04:43:15;8.57;;;5.28;;
29314;SDS011;16320;53.954;9.506;2023-04-01T04:46:20;8.50;;;5.18;;
29314;SDS011;16320;53.954;9.506;2023-04-01T04:49:26;8.43;;;4.75;;
29314;SDS011;16320;53.954;9.506;2023-04-01T04:52:30;7.78;;;5.13;;
29314;SDS011;16320;53.954;9.506;2023-04-01T04:55:35;7.85;;;4.30;;
29314;SDS011;16320;53.954;9.506;2023-04-01T05:04:47;6.97;;;4.35;;
29314;SDS011;16320;53.954;9.506;2023-04-01T05:07:52;6.55;;;3.75;;
29314;SDS011;16320;53.954;9.506;2023-04-01T05:10:56;7.20;;;4.07;;
29314;SDS011;16320;53.954;9.506;2023-04-01T05:14:00;5.53;;;3.88;;
29314;SDS011;16320;53.954;9.506;2023-04-01T05:17:08;5.60;;;3.55;;
29314;SDS011;16320;53.954;9.506;2023-04-01T05:20:14;5.65;;;3.70;;
29314;SDS011;16320;53.954;9.506;2023-04-01T05:23:20;4.35;;;3.20;;
29314;SDS011;16320;53.954;9.506;2023-04-01T05:26:25;5.45;;;3.55;;
29314;SDS011;16320;53.954;9.506;2023-04-01T05:29:29;3.92;;;3.13;;
29314;SDS011;16320;53.954;9.506;2023-04-01T05:32:34;3.65;;;2.72;;
29314;SDS011;16320;53.954;9.506;2023-04-01T05:35:38;6.03;;;3.47;;
29314;SDS011;16320;53.954;9.506;2023-04-01T05:38:44;6.03;;;3.30;;
29314;SDS011;16320;53.954;9.506;2023-04-01T05:41:51;4.40;;;3.08;;
29314;SDS011;16320;53.954;9.506;2023-04-01T05:44:55;5.68;;;2.90;;
29314;SDS011;16320;53.954;9.506;2023-04-01T05:48:00;3.65;;;2.65;;
29314;SDS011;16320;53.954;9.506;2023-04-01T05:51:05;4.78;;;3.03;;
29314;SDS011;16320;53.954;9.506;2023-04-01T05:54:09;4.88;;;2.90;;
29314;SDS011;16320;53.954;9.506;2023-04-01T05:57:13;3.50;;;2.78;;
29314;SDS011;16320;53.954;9.506;2023-04-01T06:00:18;7.10;;;3.13;;
29314;SDS011;16320;53.954;9.506;2023-04-01T06:03:23;3.95;;;3.28;;
29314;SDS011;16320;53.954;9.506;2023-04-01T06:06:29;6.30;;;3.13;;
29314;SDS011;16320;53.954;9.506;2023-04-01T06:09:37;4.53;;;3.10;;
29314;SDS011;16320;53.954;9.506;2023-04-01T06:12:45;5.80;;;3.35;;
29314;SDS011;16320;53.954;9.506;2023-04-01T06:26:19;5.70;;;3.28;;
29314;SDS011;16320;53.954;9.506;2023-04-01T06:30:01;3.97;;;3.47;;
29314;SDS011;16320;53.954;9.506;2023-04-01T06:34:06;7.72;;;3.72;;
29314;SDS011;16320;53.954;9.506;2023-04-01T06:47:46;8.13;;;2.78;;
29314;SDS011;16320;53.954;9.506;2023-04-01T06:51:43;4.85;;;2.47;;
29314;SDS011;16320;53.954;9.506;2023-04-01T06:55:12;2.92;;;2.17;;
29314;SDS011;16320;53.954;9.506;2023-04-01T07:05:01;3.80;;;2.35;;
29314;SDS011;16320;53.954;9.506;2023-04-01T07:08:11;2.13;;;1.88;;
29314;SDS011;16320;53.954;9.506;2023-04-01T07:11:24;6.13;;;2.30;;
29314;SDS011;16320;53.954;9.506;2023-04-01T07:14:36;4.10;;;1.83;;
29314;SDS011;16320;53.954;9.506;2023-04-01T07:17:46;3.60;;;1.77;;
29314;SDS011;16320;53.954;9.506;2023-04-01T07:20:59;3.90;;;1.83;;
29314;SDS011;16320;53.954;9.506;2023-04-01T07:24:06;3.97;;;1.80;;
29314;SDS011;16320;53.954;9.506;2023-04-01T07:27:20;2.75;;;1.70;;
29314;SDS011;16320;53.954;9.506;2023-04-01T07:30:26;2.47;;;1.48;;
29314;SDS011;16320;53.954;9.506;2023-04-01T07:33:53;1.88;;;1.52;;
29314;SDS011;16320;53.954;9.506;2023-04-01T07:44:12;2.35;;;1.48;;
29314;SDS011;16320;53.954;9.506;2023-04-01T07:54:17;3.30;;;1.30;;
29314;SDS011;16320;53.954;9.506;2023-04-01T08:21:58;1.17;;;0.65;;
29314;SDS011;16320;53.954;9.506;2023-04-01T08:25:13;1.85;;;0.70;;
29314;SDS011;16320;53.954;9.506;2023-04-01T08:28:33;1.80;;;0.80;;
29314;SDS011;16320;53.954;9.506;2023-04-01T08:31:54;1.60;;;0.77;;
29314;SDS011;16320;53.954;9.506;2023-04-01T08:35:29;4.20;;;1.10;;
29314;SDS011;16320;53.954;9.506;2023-04-01T08:38:46;1.63;;;1.02;;
29314;SDS011;16320;53.954;9.506;2023-04-01T08:49:15;1.80;;;1.00;;
29314;SDS011;16320;53.954;9.506;2023-04-01T08:59:44;3.15;;;1.05;;
29314;SDS011;16320;53.954;9.506;2023-04-01T09:02:58;1.20;;;1.05;;
29314;SDS011;16320;53.954;9.506;2023-04-01T09:06:32;1.90;;;1.02;;
29314;SDS011;16320;53.954;9.506;2023-04-01T09:10:11;2.33;;;1.10;;
29314;SDS011;16320;53.954;9.506;2023-04-01T09:14:04;1.35;;;0.85;;
29314;SDS011;16320;53.954;9.506;2023-04-01T09:24:32;2.60;;;0.88;;
29314;SDS011;16320;53.954;9.506;2023-04-01T09:28:02;3.67;;;1.20;;
29314;SDS011;16320;53.954;9.506;2023-04-01T09:31:32;3.35;;;1.15;;
29314;SDS011;16320;53.954;9.506;2023-04-01T09:42:28;2.63;;;1.75;;
29314;SDS011;16320;53.954;9.506;2023-04-01T10:22:50;6.50;;;2.63;;
29314;SDS011;16320;53.954;9.506;2023-04-01T10:37:39;5.85;;;3.47;;
29314;SDS011;16320;53.954;9.506;2023-04-01T11:18:16;12.85;;;5.90;;
29314;SDS011;16320;53.954;9.506;2023-04-01T11:25:35;16.85;;;6.30;;
29314;SDS011;16320;53.954;9.506;2023-04-01T11:36:35;14.73;;;7.53;;
29314;SDS011;16320;53.954;9.506;2023-04-01T12:01:16;16.55;;;7.57;;
29314;SDS011;16320;53.954;9.506;2023-04-01T12:07:53;22.45;;;7.80;;
29314;SDS011;16320;53.954;9.506;2023-04-01T12:18:25;17.88;;;6.72;;
29314;SDS011;16320;53.954;9.506;2023-04-01T12:22:13;14.15;;;6.53;;
29314;SDS011;16320;53.954;9.506;2023-04-01T12:53:36;12.75;;;6.30;;
29314;SDS011;16320;53.954;9.506;2023-04-01T12:57:08;14.20;;;6.55;;
29314;SDS011;16320;53.954;9.506;2023-04-01T13:18:57;16.40;;;7.13;;
29314;SDS011;16320;53.954;9.506;2023-04-01T13:29:51;21.77;;;7.43;;
29314;SDS011;16320;53.954;9.506;2023-04-01T13:40:48;19.60;;;6.80;;
29314;SDS011;16320;53.954;9.506;2023-04-01T13:44:16;15.15;;;7.00;;
29314;SDS011;16320;53.954;9.506;2023-04-01T14:05:32;12.73;;;6.78;;
29314;SDS011;16320;53.954;9.506;2023-04-01T14:12:31;23.23;;;7.07;;
29314;SDS011;16320;53.954;9.506;2023-04-01T14:30:17;15.23;;;6.35;;
29314;SDS011;16320;53.954;9.506;2023-04-01T14:41:59;11.52;;;6.32;;
29314;SDS011;16320;53.954;9.506;2023-04-01T14:45:35;13.98;;;5.78;;
29314;SDS011;16320;53.954;9.506;2023-04-01T14:53:31;14.88;;;6.30;;
29314;SDS011;16320;53.954;9.506;2023-04-01T15:04:09;16.40;;;6.35;;
29314;SDS011;16320;53.954;9.506;2023-04-01T15:14:34;12.20;;;6.60;;
29314;SDS011;16320;53.954;9.506;2023-04-01T15:21:37;17.70;;;6.72;;
29314;SDS011;16320;53.954;9.506;2023-04-01T15:32:37;12.95;;;5.50;;
29314;SDS011;16320;53.954;9.506;2023-04-01T15:36:10;12.15;;;5.45;;
29314;SDS011;16320;53.954;9.506;2023-04-01T15:39:54;17.75;;;5.68;;
29314;SDS011;16320;53.954;9.506;2023-04-01T15:49:56;13.98;;;5.03;;
29314;SDS011;16320;53.954;9.506;2023-04-01T15:57:09;14.55;;;4.95;;
29314;SDS011;16320;53.954;9.506;2023-04-01T16:00:25;12.07;;;5.10;;
29314;SDS011;16320;53.954;9.506;2023-04-01T16:03:40;11.70;;;4.95;;
29314;SDS011;16320;53.954;9.506;2023-04-01T16:22:07;9.73;;;4.45;;
29314;SDS011;16320;53.954;9.506;2023-04-01T16:28:29;12.30;;;3.42;;
29314;SDS011;16320;53.954;9.506;2023-04-01T16:42:40;11.10;;;4.13;;
29314;SDS011;16320;53.954;9.506;2023-04-01T16:46:35;13.55;;;4.60;;
29314;SDS011;16320;53.954;9.506;2023-04-01T16:56:55;12.15;;;3.97;;
29314;SDS011;16320;53.954;9.506;2023-04-01T17:03:57;7.78;;;3.40;;
29314;SDS011;16320;53.954;9.506;2023-04-01T17:14:20;10.45;;;3.83;;
29314;SDS011;16320;53.954;9.506;2023-04-01T17:17:58;10.40;;;3.58;;
29314;SDS011;16320;53.954;9.506;2023-04-01T17:24:38;10.40;;;3.55;;
29314;SDS011;16320;53.954;9.506;2023-04-01T17:28:36;7.55;;;2.47;;
29314;SDS011;16320;53.954;9.506;2023-04-01T17:32:07;10.45;;;3.35;;
29314;SDS011;16320;53.954;9.506;2023-04-01T17:35:30;7.82;;;3.25;;
29314;SDS011;16320;53.954;9.506;2023-04-01T17:39:02;11.18;;;3.22;;
29314;SDS011;16320;53.954;9.506;2023-04-01T17:46:11;13.50;;;4.32;;
29314;SDS011;16320;53.954;9.506;2023-04-01T18:00:53;9.68;;;3.35;;
29314;SDS011;16320;53.954;9.506;2023-04-01T18:07:49;15.00;;;4.28;;
29314;SDS011;16320;53.954;9.506;2023-04-01T18:11:17;7.65;;;3.17;;
29314;SDS011;16320;53.954;9.506;2023-04-01T18:21:50;8.73;;;2.50;;
29314;SDS011;16320;53.954;9.506;2023-04-01T18:25:14;7.90;;;3.25;;
29314;SDS011;16320;53.954;9.506;2023-04-01T18:28:54;6.88;;;2.55;;
29314;SDS011;16320;53.954;9.506;2023-04-01T18:32:11;8.02;;;2.53;;
29314;SDS011;16320;53.954;9.506;2023-04-01T18:35:47;9.38;;;3.15;;
29314;SDS011;16320;53.954;9.506;2023-04-01T18:45:59;8.40;;;2.67;;
29314;SDS011;16320;53.954;9.506;2023-04-01T18:56:21;8.95;;;2.58;;
29314;SDS011;16320;53.954;9.506;2023-04-01T19:03:02;5.72;;;2.55;;
29314;SDS011;16320;53.954;9.506;2023-04-01T19:09:51;8.63;;;2.97;;
29314;SDS011;16320;53.954;9.506;2023-04-01T19:16:28;7.15;;;2.42;;
29314;SDS011;16320;53.954;9.506;2023-04-01T19:19:53;9.68;;;2.53;;
29314;SDS011;16320;53.954;9.506;2023-04-01T20:16:03;15.60;;;3.55;;
29314;SDS011;16320;53.954;9.506;2023-04-01T20:19:12;7.50;;;2.25;;
29314;SDS011;16320;53.954;9.506;2023-04-01T20:29:05;5.60;;;2.60;;
29314;SDS011;16320;53.954;9.506;2023-04-01T20:32:33;8.73;;;2.97;;
29314;SDS011;16320;53.954;9.506;2023-04-01T20:43:40;7.75;;;3.22;;
29314;SDS011;16320;53.954;9.506;2023-04-01T20:53:50;7.13;;;2.72;;
29314;SDS011;16320;53.954;9.506;2023-04-01T20:57:14;8.18;;;2.55;;
29314;SDS011;16320;53.954;9.506;2023-04-01T21:00:36;11.93;;;3.20;;
29314;SDS011;16320;53.954;9.506;2023-04-01T21:04:10;8.95;;;2.50;;
29314;SDS011;16320;53.954;9.506;2023-04-01T21:07:28;9.52;;;2.38;;
29314;SDS011;16320;53.954;9.506;2023-04-01T21:21:49;8.43;;;3.05;;
29314;SDS011;16320;53.954;9.506;2023-04-01T22:05:14;9.15;;;2.25;;
29314;SDS011;16320;53.954;9.506;2023-04-01T22:08:56;11.88;;;2.25;;
29314;SDS011;16320;53.954;9.506;2023-04-01T22:15:52;7.15;;;1.98;;
29314;SDS011;16320;53.954;9.506;2023-04-01T22:25:56;6.32;;;2.13;;
29314;SDS011;16320;53.954;9.506;2023-04-01T22:29:35;7.60;;;1.83;;
29314;SDS011;16320;53.954;9.506;2023-04-01T22:33:20;15.15;;;2.25;;
29314;SDS011;16320;53.954;9.506;2023-04-01T22:40:21;9.18;;;2.10;;
29314;SDS011;16320;53.954;9.506;2023-04-01T22:43:38;8.90;;;2.20;;
29314;SDS011;16320;53.954;9.506;2023-04-01T22:53:57;4.22;;;1.63;;
29314;SDS011;16320;53.954;9.506;2023-04-01T22:57:54;10.35;;;2.35;;
29314;SDS011;16320;53.954;9.506;2023-04-01T23:01:05;7.32;;;1.88;;
29314;SDS011;16320;53.954;9.506;2023-04-01T23:04:16;3.08;;;1.50;;
29314;SDS011;16320;53.954;9.506;2023-04-01T23:10:58;8.25;;;1.90;;
29314;SDS011;16320;53.954;9.506;2023-04-01T23:27:19;10.82;;;2.25;;
29314;SDS011;16320;53.954;9.506;2023-04-01T23:33:43;5.22;;;1.90;;
29314;SDS011;16320;53.954;9.506;2023-04-01T23:36:49;3.60;;;1.52;;
29314;SDS011;16320;53.954;9.506;2023-04-01T23:39:56;6.55;;;1.70;;
29314;SDS011;16320;53.954;9.506;2023-04-01T23:43:02;6.53;;;2.47;;
29314;SDS011;16320;53.954;9.506;2023-04-01T23:46:17;4.80;;;1.35;;
29314;SDS011;16320;53.954;9.506;2023-04-01T23:49:28;3.20;;;1.27;;
29314;SDS011;16320;53.954;9.506;2023-04-01T23:52:46;6.30;;;1.23;;
29314;SDS011;16320;53.954;9.506;2023-04-01T23:55:59;9.20;;;1.60;;
29314;SDS011;16320;53.954;9.506;2023-04-01T23:59:10;6.53;;;1.85;;
